sensor_id;sensor_type;location;lat;lon;timestamp;pressure;altitude;pressure_sealevel;temperature;humidity
73817;BME280;62146;53.232;-1.304;2023-05-21T00:00:21;101395.91;;;11.24;100.00
73817;BME280;62146;53.232;-1.304;2023-05-21T00:02:47;101395.78;;;11.20;100.00
73817;BME280;62146;53.232;-1.304;2023-05-21T00:05:14;101392.50;;;11.18;100.00
73817;BME280;62146;53.232;-1.304;2023-05-21T00:07:43;101394.22;;;11.12;100.00
73817;BME280;62146;53.232;-1.304;2023-05-21T00:10:11;101387.72;;;11.08;100.00
73817;BME280;62146;53.232;-1.304;2023-05-21T00:12:38;101378.75;;;11.03;100.00
73817;BME280;62146;53.232;-1.304;2023-05-21T00:15:05;101384.50;;;11.00;100.00
73817;BME280;62146;53.232;-1.304;2023-05-21T00:17:33;101375.34;;;10.96;100.00
73817;BME280;62146;53.232;-1.304;2023-05-21T00:20:03;101379.94;;;10.89;100.00
73817;BME280;62146;53.232;-1.304;2023-05-21T00:22:32;101381.16;;;10.87;100.00
73817;BME280;62146;53.232;-1.304;2023-05-21T00:24:59;101381.59;;;10.84;100.00
73817;BME280;62146;53.232;-1.304;2023-05-21T00:27:26;101382.69;;;10.76;100.00
73817;BME280;62146;53.232;-1.304;2023-05-21T00:29:52;101387.41;;;10.74;100.00
73817;BME280;62146;53.232;-1.304;2023-05-21T00:32:19;101387.81;;;10.71;100.00
73817;BME280;62146;53.232;-1.304;2023-05-21T00:34:45;101385.03;;;10.67;100.00
73817;BME280;62146;53.232;-1.304;2023-05-21T00:37:12;101385.44;;;10.64;100.00
73817;BME280;62146;53.232;-1.304;2023-05-21T00:39:40;101385.88;;;10.61;100.00
73817;BME280;62146;53.232;-1.304;2023-05-21T00:42:07;101374.06;;;10.57;100.00
73817;BME280;62146;53.232;-1.304;2023-05-21T00:44:34;101373.47;;;10.55;100.00
73817;BME280;62146;53.232;-1.304;2023-05-21T00:47:01;101367.34;;;10.54;100.00
73817;BME280;62146;53.232;-1.304;2023-05-21T00:49:28;101377.13;;;10.54;100.00
73817;BME280;62146;53.232;-1.304;2023-05-21T00:51:56;101374.28;;;10.55;100.00
73817;BME280;62146;53.232;-1.304;2023-05-21T00:54:23;101365.31;;;10.56;100.00
73817;BME280;62146;53.232;-1.304;2023-05-21T00:56:50;101367.34;;;10.54;100.00
73817;BME280;62146;53.232;-1.304;2023-05-21T00:59:17;101368.19;;;10.55;100.00
73817;BME280;62146;53.232;-1.304;2023-05-21T01:01:43;101362.50;;;10.51;100.00
73817;BME280;62146;53.232;-1.304;2023-05-21T01:04:19;101362.91;;;10.48;100.00
73817;BME280;62146;53.232;-1.304;2023-05-21T01:06:45;101361.09;;;10.43;100.00
73817;BME280;62146;53.232;-1.304;2023-05-21T01:09:12;101358.06;;;10.39;100.00
73817;BME280;62146;53.232;-1.304;2023-05-21T01:11:46;101366.91;;;10.33;100.00
73817;BME280;62146;53.232;-1.304;2023-05-21T01:14:14;101368.56;;;10.28;100.00
73817;BME280;62146;53.232;-1.304;2023-05-21T01:16:43;101367.97;;;10.26;100.00
73817;BME280;62146;53.232;-1.304;2023-05-21T01:19:18;101362.69;;;10.19;100.00
73817;BME280;62146;53.232;-1.304;2023-05-21T01:21:49;101362.31;;;10.16;100.00
73817;BME280;62146;53.232;-1.304;2023-05-21T01:24:16;101358.47;;;10.12;100.00
73817;BME280;62146;53.232;-1.304;2023-05-21T01:26:43;101357.91;;;10.04;100.00
73817;BME280;62146;53.232;-1.304;2023-05-21T01:29:12;101354.06;;;10.00;100.00
73817;BME280;62146;53.232;-1.304;2023-05-21T01:34:52;101355.53;;;9.89;100.00
73817;BME280;62146;53.232;-1.304;2023-05-21T01:37:35;101355.31;;;9.85;100.00
73817;BME280;62146;53.232;-1.304;2023-05-21T01:40:28;101362.06;;;9.81;100.00
73817;BME280;62146;53.232;-1.304;2023-05-21T01:42:57;101356.59;;;9.76;100.00
73817;BME280;62146;53.232;-1.304;2023-05-21T01:45:24;101361.28;;;9.74;100.00
73817;BME280;62146;53.232;-1.304;2023-05-21T01:47:53;101349.72;;;9.68;100.00
73817;BME280;62146;53.232;-1.304;2023-05-21T01:50:22;101358.47;;;9.62;100.00
73817;BME280;62146;53.232;-1.304;2023-05-21T01:52:55;101371.31;;;9.59;100.00
73817;BME280;62146;53.232;-1.304;2023-05-21T01:55:23;101367.28;;;9.57;100.00
73817;BME280;62146;53.232;-1.304;2023-05-21T01:57:51;101367.69;;;9.54;100.00
73817;BME280;62146;53.232;-1.304;2023-05-21T02:00:23;101364.66;;;9.50;100.00
73817;BME280;62146;53.232;-1.304;2023-05-21T02:02:50;101374.84;;;9.47;100.00
73817;BME280;62146;53.232;-1.304;2023-05-21T02:05:17;101364.66;;;9.44;100.00
73817;BME280;62146;53.232;-1.304;2023-05-21T02:07:44;101361.84;;;9.39;100.00
73817;BME280;62146;53.232;-1.304;2023-05-21T02:10:11;101364.69;;;9.37;100.00
73817;BME280;62146;53.232;-1.304;2023-05-21T02:12:38;101357.75;;;9.36;100.00
73817;BME280;62146;53.232;-1.304;2023-05-21T02:15:05;101353.09;;;9.32;100.00
73817;BME280;62146;53.232;-1.304;2023-05-21T02:17:32;101350.88;;;9.29;100.00
73817;BME280;62146;53.232;-1.304;2023-05-21T02:20:02;101352.09;;;9.27;100.00
73817;BME280;62146;53.232;-1.304;2023-05-21T02:22:43;101345.38;;;9.24;100.00
73817;BME280;62146;53.232;-1.304;2023-05-21T02:25:12;101351.91;;;9.22;100.00
73817;BME280;62146;53.232;-1.304;2023-05-21T02:27:39;101348.06;;;9.18;100.00
73817;BME280;62146;53.232;-1.304;2023-05-21T02:30:09;101346.00;;;9.13;100.00
73817;BME280;62146;53.232;-1.304;2023-05-21T02:32:36;101345.59;;;9.10;100.00
73817;BME280;62146;53.232;-1.304;2023-05-21T02:35:05;101341.75;;;9.06;100.00
73817;BME280;62146;53.232;-1.304;2023-05-21T02:37:32;101348.28;;;9.04;100.00
73817;BME280;62146;53.232;-1.304;2023-05-21T02:40:03;101342.38;;;9.02;100.00
73817;BME280;62146;53.232;-1.304;2023-05-21T02:42:31;101340.16;;;8.99;100.00
73817;BME280;62146;53.232;-1.304;2023-05-21T02:44:58;101344.22;;;8.95;100.00
73817;BME280;62146;53.232;-1.304;2023-05-21T02:47:25;101340.97;;;8.93;100.00
73817;BME280;62146;53.232;-1.304;2023-05-21T02:49:52;101341.19;;;8.91;100.00
73817;BME280;62146;53.232;-1.304;2023-05-21T02:52:19;101341.59;;;8.88;100.00
73817;BME280;62146;53.232;-1.304;2023-05-21T02:54:50;101334.91;;;8.80;100.00
73817;BME280;62146;53.232;-1.304;2023-05-21T02:57:17;101327.38;;;8.77;100.00
73817;BME280;62146;53.232;-1.304;2023-05-21T02:59:44;101340.59;;;8.77;100.00
73817;BME280;62146;53.232;-1.304;2023-05-21T03:02:11;101331.03;;;8.69;100.00
73817;BME280;62146;53.232;-1.304;2023-05-21T03:04:38;101320.06;;;8.66;100.00
73817;BME280;62146;53.232;-1.304;2023-05-21T03:07:12;101331.44;;;8.66;100.00
73817;BME280;62146;53.232;-1.304;2023-05-21T03:09:42;101325.34;;;8.66;100.00
73817;BME280;62146;53.232;-1.304;2023-05-21T03:12:10;101324.31;;;8.60;100.00
73817;BME280;62146;53.232;-1.304;2023-05-21T03:14:37;101320.47;;;8.56;100.00
73817;BME280;62146;53.232;-1.304;2023-05-21T03:17:04;101324.75;;;8.51;100.00
73817;BME280;62146;53.232;-1.304;2023-05-21T03:19:34;101325.34;;;8.47;100.00
73817;BME280;62146;53.232;-1.304;2023-05-21T03:22:05;101324.53;;;8.40;100.00
73817;BME280;62146;53.232;-1.304;2023-05-21T03:24:32;101329.22;;;8.38;100.00
73817;BME280;62146;53.232;-1.304;2023-05-21T03:26:58;101321.06;;;8.33;100.00
73817;BME280;62146;53.232;-1.304;2023-05-21T03:29:27;101321.47;;;8.30;100.00
73817;BME280;62146;53.232;-1.304;2023-05-21T03:31:54;101330.63;;;8.28;100.00
73817;BME280;62146;53.232;-1.304;2023-05-21T03:34:21;101335.72;;;8.23;100.00
73817;BME280;62146;53.232;-1.304;2023-05-21T03:36:48;101339.78;;;8.19;100.00
73817;BME280;62146;53.232;-1.304;2023-05-21T03:39:15;101331.44;;;8.15;100.00
73817;BME280;62146;53.232;-1.304;2023-05-21T03:41:42;101330.59;;;8.08;100.00
73817;BME280;62146;53.232;-1.304;2023-05-21T03:44:08;101325.50;;;8.07;100.00
73817;BME280;62146;53.232;-1.304;2023-05-21T03:46:35;101329.53;;;8.03;100.00
73817;BME280;62146;53.232;-1.304;2023-05-21T03:49:02;101325.06;;;7.97;100.00
73817;BME280;62146;53.232;-1.304;2023-05-21T03:51:28;101322.00;;;7.94;100.00
73817;BME280;62146;53.232;-1.304;2023-05-21T03:53:57;101318.16;;;7.90;100.00
73817;BME280;62146;53.232;-1.304;2023-05-21T03:56:24;101333.34;;;7.88;100.00
73817;BME280;62146;53.232;-1.304;2023-05-21T03:58:51;101326.47;;;7.87;100.00
73817;BME280;62146;53.232;-1.304;2023-05-21T04:01:18;101323.41;;;7.83;100.00
73817;BME280;62146;53.232;-1.304;2023-05-21T04:03:45;101327.28;;;7.81;100.00
73817;BME280;62146;53.232;-1.304;2023-05-21T04:06:12;101329.28;;;7.79;100.00
73817;BME280;62146;53.232;-1.304;2023-05-21T04:08:39;101326.63;;;7.79;100.00
73817;BME280;62146;53.232;-1.304;2023-05-21T04:11:06;101323.59;;;7.75;100.00
73817;BME280;62146;53.232;-1.304;2023-05-21T04:13:32;101322.97;;;7.74;100.00
73817;BME280;62146;53.232;-1.304;2023-05-21T04:15:59;101329.06;;;7.74;100.00
73817;BME280;62146;53.232;-1.304;2023-05-21T04:18:26;101325.19;;;7.70;100.00
73817;BME280;62146;53.232;-1.304;2023-05-21T04:20:52;101321.94;;;7.68;100.00
73817;BME280;62146;53.232;-1.304;2023-05-21T04:23:19;101327.41;;;7.67;100.00
73817;BME280;62146;53.232;-1.304;2023-05-21T04:25:49;101327.41;;;7.67;100.00
73817;BME280;62146;53.232;-1.304;2023-05-21T04:28:16;101321.34;;;7.66;100.00
73817;BME280;62146;53.232;-1.304;2023-05-21T04:30:46;101322.31;;;7.65;100.00
73817;BME280;62146;53.232;-1.304;2023-05-21T04:33:13;101323.34;;;7.64;100.00
73817;BME280;62146;53.232;-1.304;2023-05-21T04:35:45;101319.88;;;7.64;100.00
73817;BME280;62146;53.232;-1.304;2023-05-21T04:38:12;101313.00;;;7.63;100.00
73817;BME280;62146;53.232;-1.304;2023-05-21T04:40:39;101317.84;;;7.59;100.00
73817;BME280;62146;53.232;-1.304;2023-05-21T04:43:06;101315.22;;;7.59;100.00
73817;BME280;62146;53.232;-1.304;2023-05-21T04:45:33;101320.28;;;7.61;100.00
73817;BME280;62146;53.232;-1.304;2023-05-21T04:48:00;101321.50;;;7.58;100.00
73817;BME280;62146;53.232;-1.304;2023-05-21T04:50:28;101319.06;;;7.57;100.00
73817;BME280;62146;53.232;-1.304;2023-05-21T04:52:56;101316.41;;;7.57;100.00
73817;BME280;62146;53.232;-1.304;2023-05-21T04:55:24;101313.78;;;7.57;100.00
73817;BME280;62146;53.232;-1.304;2023-05-21T04:57:51;101320.69;;;7.58;100.00
73817;BME280;62146;53.232;-1.304;2023-05-21T05:00:18;101317.22;;;7.57;100.00
73817;BME280;62146;53.232;-1.304;2023-05-21T05:02:45;101313.78;;;7.57;100.00
73817;BME280;62146;53.232;-1.304;2023-05-21T05:05:12;101312.97;;;7.56;100.00
73817;BME280;62146;53.232;-1.304;2023-05-21T05:07:38;101314.59;;;7.57;100.00
73817;BME280;62146;53.232;-1.304;2023-05-21T05:10:05;101320.06;;;7.56;100.00
73817;BME280;62146;53.232;-1.304;2023-05-21T05:12:32;101321.09;;;7.55;100.00
73817;BME280;62146;53.232;-1.304;2023-05-21T05:14:59;101319.06;;;7.57;100.00
73817;BME280;62146;53.232;-1.304;2023-05-21T05:17:25;101323.13;;;7.59;100.00
73817;BME280;62146;53.232;-1.304;2023-05-21T05:19:52;101321.94;;;7.62;100.00
73817;BME280;62146;53.232;-1.304;2023-05-21T05:22:19;101315.63;;;7.63;100.00
73817;BME280;62146;53.232;-1.304;2023-05-21T05:24:45;101312.78;;;7.64;100.00
73817;BME280;62146;53.232;-1.304;2023-05-21T05:27:12;101319.50;;;7.67;100.00
73817;BME280;62146;53.232;-1.304;2023-05-21T05:29:39;101317.47;;;7.69;100.00
73817;BME280;62146;53.232;-1.304;2023-05-21T05:32:06;101308.56;;;7.70;100.00
73817;BME280;62146;53.232;-1.304;2023-05-21T05:34:32;101316.91;;;7.73;100.00
73817;BME280;62146;53.232;-1.304;2023-05-21T05:36:59;101319.91;;;7.76;100.00
73817;BME280;62146;53.232;-1.304;2023-05-21T05:39:28;101323.41;;;7.83;100.00
73817;BME280;62146;53.232;-1.304;2023-05-21T05:41:55;101320.78;;;7.90;100.00
73817;BME280;62146;53.232;-1.304;2023-05-21T05:44:21;101319.78;;;7.97;100.00
73817;BME280;62146;53.232;-1.304;2023-05-21T05:46:48;101314.53;;;8.03;100.00
73817;BME280;62146;53.232;-1.304;2023-05-21T05:49:15;101314.38;;;8.11;100.00
73817;BME280;62146;53.232;-1.304;2023-05-21T05:51:42;101320.03;;;8.15;100.00
73817;BME280;62146;53.232;-1.304;2023-05-21T05:54:08;101326.56;;;8.19;100.00
73817;BME280;62146;53.232;-1.304;2023-05-21T05:56:35;101319.66;;;8.24;100.00
73817;BME280;62146;53.232;-1.304;2023-05-21T05:59:01;101323.31;;;8.29;100.00
73817;BME280;62146;53.232;-1.304;2023-05-21T06:01:28;101324.53;;;8.33;100.00
73817;BME280;62146;53.232;-1.304;2023-05-21T06:03:55;101317.63;;;8.39;100.00
73817;BME280;62146;53.232;-1.304;2023-05-21T06:06:22;101318.03;;;8.42;100.00
73817;BME280;62146;53.232;-1.304;2023-05-21T06:08:49;101326.38;;;8.46;100.00
73817;BME280;62146;53.232;-1.304;2023-05-21T06:11:16;101316.22;;;8.49;100.00
73817;BME280;62146;53.232;-1.304;2023-05-21T06:13:44;101316.59;;;8.53;100.00
73817;BME280;62146;53.232;-1.304;2023-05-21T06:16:11;101316.00;;;8.57;100.00
73817;BME280;62146;53.232;-1.304;2023-05-21T06:18:38;101321.66;;;8.60;100.00
73817;BME280;62146;53.232;-1.304;2023-05-21T06:21:05;101322.06;;;8.64;100.00
73817;BME280;62146;53.232;-1.304;2023-05-21T06:23:31;101318.22;;;8.66;100.00
73817;BME280;62146;53.232;-1.304;2023-05-21T06:25:58;101326.34;;;8.71;100.00
73817;BME280;62146;53.232;-1.304;2023-05-21T06:28:25;101322.28;;;8.75;100.00
73817;BME280;62146;53.232;-1.304;2023-05-21T06:30:52;101317.22;;;8.80;100.00
73817;BME280;62146;53.232;-1.304;2023-05-21T06:33:19;101327.16;;;8.84;100.00
73817;BME280;62146;53.232;-1.304;2023-05-21T06:35:46;101317.56;;;8.90;100.00
73817;BME280;62146;53.232;-1.304;2023-05-21T06:38:12;101330.97;;;8.95;100.00
73817;BME280;62146;53.232;-1.304;2023-05-21T06:40:39;101328.56;;;9.00;100.00
73817;BME280;62146;53.232;-1.304;2023-05-21T06:43:05;101331.38;;;9.05;100.00
73817;BME280;62146;53.232;-1.304;2023-05-21T06:45:32;101331.56;;;9.09;100.00
73817;BME280;62146;53.232;-1.304;2023-05-21T06:47:59;101333.19;;;9.17;100.00
73817;BME280;62146;53.232;-1.304;2023-05-21T06:50:25;101334.19;;;9.22;100.00
73817;BME280;62146;53.232;-1.304;2023-05-21T06:52:52;101334.38;;;9.27;100.00
73817;BME280;62146;53.232;-1.304;2023-05-21T06:55:19;101336.22;;;9.33;100.00
73817;BME280;62146;53.232;-1.304;2023-05-21T06:57:45;101340.66;;;9.39;100.00
73817;BME280;62146;53.232;-1.304;2023-05-21T07:00:12;101332.47;;;9.47;100.00
73817;BME280;62146;53.232;-1.304;2023-05-21T07:02:39;101335.69;;;9.55;100.00
73817;BME280;62146;53.232;-1.304;2023-05-21T07:05:06;101327.72;;;9.62;100.00
73817;BME280;62146;53.232;-1.304;2023-05-21T07:07:33;101340.50;;;9.71;100.00
73817;BME280;62146;53.232;-1.304;2023-05-21T07:10:00;101338.47;;;9.79;100.00
73817;BME280;62146;53.232;-1.304;2023-05-21T07:12:27;101330.88;;;9.89;100.00
73817;BME280;62146;53.232;-1.304;2023-05-21T07:14:54;101335.50;;;10.00;100.00
73817;BME280;62146;53.232;-1.304;2023-05-21T07:17:22;101336.69;;;10.10;100.00
73817;BME280;62146;53.232;-1.304;2023-05-21T07:19:48;101339.47;;;10.21;100.00
73817;BME280;62146;53.232;-1.304;2023-05-21T07:22:15;101330.38;;;10.35;100.00
73817;BME280;62146;53.232;-1.304;2023-05-21T07:24:41;101335.34;;;10.49;100.00
73817;BME280;62146;53.232;-1.304;2023-05-21T07:27:08;101329.75;;;10.64;100.00
73817;BME280;62146;53.232;-1.304;2023-05-21T07:29:50;101331.03;;;10.79;100.00
73817;BME280;62146;53.232;-1.304;2023-05-21T07:32:17;101339.22;;;10.95;100.00
73817;BME280;62146;53.232;-1.304;2023-05-21T07:34:43;101337.03;;;11.10;100.00
73817;BME280;62146;53.232;-1.304;2023-05-21T07:37:10;101327.91;;;11.23;100.00
73817;BME280;62146;53.232;-1.304;2023-05-21T07:39:37;101331.88;;;11.39;100.00
73817;BME280;62146;53.232;-1.304;2023-05-21T07:42:03;101320.84;;;11.53;100.00
73817;BME280;62146;53.232;-1.304;2023-05-21T07:44:30;101320.03;;;11.70;100.00
73817;BME280;62146;53.232;-1.304;2023-05-21T07:46:57;101327.13;;;11.87;100.00
73817;BME280;62146;53.232;-1.304;2023-05-21T07:49:23;101328.13;;;12.04;100.00
73817;BME280;62146;53.232;-1.304;2023-05-21T07:51:50;101325.63;;;12.20;100.00
73817;BME280;62146;53.232;-1.304;2023-05-21T07:54:17;101326.59;;;12.37;100.00
73817;BME280;62146;53.232;-1.304;2023-05-21T07:56:44;101332.88;;;12.54;100.00
73817;BME280;62146;53.232;-1.304;2023-05-21T07:59:13;101336.47;;;12.70;100.00
73817;BME280;62146;53.232;-1.304;2023-05-21T08:01:40;101329.25;;;12.88;100.00
73817;BME280;62146;53.232;-1.304;2023-05-21T08:04:07;101329.94;;;13.07;100.00
73817;BME280;62146;53.232;-1.304;2023-05-21T08:06:34;101335.47;;;13.28;100.00
73817;BME280;62146;53.232;-1.304;2023-05-21T08:09:03;101340.75;;;13.50;100.00
73817;BME280;62146;53.232;-1.304;2023-05-21T08:11:31;101330.03;;;13.73;100.00
73817;BME280;62146;53.232;-1.304;2023-05-21T08:13:58;101327.31;;;13.95;100.00
73817;BME280;62146;53.232;-1.304;2023-05-21T08:16:25;101329.88;;;14.18;100.00
73817;BME280;62146;53.232;-1.304;2023-05-21T08:18:52;101331.81;;;14.39;100.00
73817;BME280;62146;53.232;-1.304;2023-05-21T08:21:18;101331.13;;;14.59;100.00
73817;BME280;62146;53.232;-1.304;2023-05-21T08:23:45;101325.38;;;14.83;100.00
73817;BME280;62146;53.232;-1.304;2023-05-21T08:26:12;101333.44;;;15.04;100.00
73817;BME280;62146;53.232;-1.304;2023-05-21T08:28:41;101327.09;;;15.27;100.00
73817;BME280;62146;53.232;-1.304;2023-05-21T08:31:08;101323.97;;;15.51;100.00
73817;BME280;62146;53.232;-1.304;2023-05-21T08:33:34;101322.31;;;15.71;100.00
73817;BME280;62146;53.232;-1.304;2023-05-21T08:36:05;101324.72;;;15.93;100.00
73817;BME280;62146;53.232;-1.304;2023-05-21T08:38:35;101330.63;;;16.16;100.00
73817;BME280;62146;53.232;-1.304;2023-05-21T08:41:05;101319.88;;;16.37;100.00
73817;BME280;62146;53.232;-1.304;2023-05-21T08:43:33;101317.34;;;16.57;100.00
73817;BME280;62146;53.232;-1.304;2023-05-21T08:46:02;101315.38;;;16.79;100.00
73817;BME280;62146;53.232;-1.304;2023-05-21T08:48:30;101327.84;;;16.99;100.00
73817;BME280;62146;53.232;-1.304;2023-05-21T08:50:58;101327.19;;;17.18;100.00
73817;BME280;62146;53.232;-1.304;2023-05-21T08:53:26;101327.31;;;17.38;100.00
73817;BME280;62146;53.232;-1.304;2023-05-21T08:55:55;101329.56;;;17.56;100.00
73817;BME280;62146;53.232;-1.304;2023-05-21T08:58:22;101305.72;;;17.74;100.00
73817;BME280;62146;53.232;-1.304;2023-05-21T09:00:49;101312.50;;;17.91;100.00
73817;BME280;62146;53.232;-1.304;2023-05-21T09:03:16;101309.59;;;18.12;100.00
73817;BME280;62146;53.232;-1.304;2023-05-21T09:05:44;101310.72;;;18.31;100.00
73817;BME280;62146;53.232;-1.304;2023-05-21T09:08:18;101313.97;;;18.52;100.00
73817;BME280;62146;53.232;-1.304;2023-05-21T09:10:49;101307.78;;;18.72;100.00
73817;BME280;62146;53.232;-1.304;2023-05-21T09:13:17;101313.16;;;18.91;100.00
73817;BME280;62146;53.232;-1.304;2023-05-21T09:15:45;101311.78;;;19.08;100.00
73817;BME280;62146;53.232;-1.304;2023-05-21T09:18:12;101309.59;;;19.25;100.00
73817;BME280;62146;53.232;-1.304;2023-05-21T09:20:39;101300.13;;;19.42;100.00
73817;BME280;62146;53.232;-1.304;2023-05-21T09:23:07;101302.19;;;19.60;100.00
73817;BME280;62146;53.232;-1.304;2023-05-21T09:25:47;101305.09;;;19.78;100.00
73817;BME280;62146;53.232;-1.304;2023-05-21T09:28:15;101303.66;;;19.95;100.00
73817;BME280;62146;53.232;-1.304;2023-05-21T09:30:50;101299.50;;;20.13;100.00
73817;BME280;62146;53.232;-1.304;2023-05-21T09:33:26;101305.31;;;20.29;100.00
73817;BME280;62146;53.232;-1.304;2023-05-21T09:35:54;101301.94;;;20.47;100.00
73817;BME280;62146;53.232;-1.304;2023-05-21T09:38:22;101307.25;;;20.62;100.00
73817;BME280;62146;53.232;-1.304;2023-05-21T09:40:55;101303.34;;;20.77;100.00
73817;BME280;62146;53.232;-1.304;2023-05-21T09:43:22;101302.09;;;20.93;100.00
73817;BME280;62146;53.232;-1.304;2023-05-21T09:45:50;101303.28;;;21.10;100.00
73817;BME280;62146;53.232;-1.304;2023-05-21T09:48:35;101294.44;;;21.28;100.00
73817;BME280;62146;53.232;-1.304;2023-05-21T09:51:13;101292.13;;;21.45;100.00
73817;BME280;62146;53.232;-1.304;2023-05-21T09:53:51;101288.63;;;21.62;100.00
73817;BME280;62146;53.232;-1.304;2023-05-21T09:56:26;101282.25;;;21.76;100.00
73817;BME280;62146;53.232;-1.304;2023-05-21T09:59:02;101280.34;;;21.95;100.00
73817;BME280;62146;53.232;-1.304;2023-05-21T10:01:31;101280.41;;;22.13;100.00
73817;BME280;62146;53.232;-1.304;2023-05-21T10:04:02;101272.84;;;22.29;100.00
73817;BME280;62146;53.232;-1.304;2023-05-21T10:06:30;101270.41;;;22.45;100.00
73817;BME280;62146;53.232;-1.304;2023-05-21T10:09:01;101269.56;;;22.63;100.00
73817;BME280;62146;53.232;-1.304;2023-05-21T10:11:31;101269.56;;;22.81;100.00
73817;BME280;62146;53.232;-1.304;2023-05-21T10:14:15;101276.78;;;22.99;100.00
73817;BME280;62146;53.232;-1.304;2023-05-21T10:16:43;101269.16;;;23.14;100.00
73817;BME280;62146;53.232;-1.304;2023-05-21T10:19:10;101273.81;;;23.27;100.00
73817;BME280;62146;53.232;-1.304;2023-05-21T10:21:39;101275.69;;;23.39;100.00
73817;BME280;62146;53.232;-1.304;2023-05-21T10:24:09;101268.69;;;23.52;100.00
73817;BME280;62146;53.232;-1.304;2023-05-21T10:26:37;101270.56;;;23.64;100.00
73817;BME280;62146;53.232;-1.304;2023-05-21T10:29:03;101265.47;;;23.76;100.00
73817;BME280;62146;53.232;-1.304;2023-05-21T10:31:30;101267.34;;;23.89;100.00
73817;BME280;62146;53.232;-1.304;2023-05-21T10:33:59;101265.50;;;23.98;100.00
73817;BME280;62146;53.232;-1.304;2023-05-21T10:36:29;101267.78;;;24.04;100.00
73817;BME280;62146;53.232;-1.304;2023-05-21T10:39:00;101260.97;;;24.07;100.00
73817;BME280;62146;53.232;-1.304;2023-05-21T10:41:34;101264.94;;;24.09;100.00
73817;BME280;62146;53.232;-1.304;2023-05-21T10:44:13;101257.31;;;24.11;100.00
73817;BME280;62146;53.232;-1.304;2023-05-21T10:57:51;101255.16;;;24.35;100.00
73817;BME280;62146;53.232;-1.304;2023-05-21T11:00:24;101250.38;;;24.40;100.00
73817;BME280;62146;53.232;-1.304;2023-05-21T11:02:52;101246.94;;;24.48;100.00
73817;BME280;62146;53.232;-1.304;2023-05-21T11:05:51;101243.34;;;24.61;100.00
73817;BME280;62146;53.232;-1.304;2023-05-21T11:10:53;101243.16;;;24.79;100.00
73817;BME280;62146;53.232;-1.304;2023-05-21T11:13:20;101239.38;;;24.88;100.00
73817;BME280;62146;53.232;-1.304;2023-05-21T11:21:15;101238.06;;;25.16;100.00
73817;BME280;62146;53.232;-1.304;2023-05-21T11:24:04;101237.78;;;25.26;100.00
73817;BME280;62146;53.232;-1.304;2023-05-21T11:29:13;101239.38;;;25.35;100.00
73817;BME280;62146;53.232;-1.304;2023-05-21T11:31:58;101233.66;;;25.36;100.00
73817;BME280;62146;53.232;-1.304;2023-05-21T11:34:36;101227.91;;;25.38;100.00
73817;BME280;62146;53.232;-1.304;2023-05-21T11:39:44;101229.81;;;25.37;100.00
73817;BME280;62146;53.232;-1.304;2023-05-21T11:42:11;101225.66;;;25.40;100.00
73817;BME280;62146;53.232;-1.304;2023-05-21T11:44:41;101225.66;;;25.40;100.00
73817;BME280;62146;53.232;-1.304;2023-05-21T11:47:09;101223.94;;;25.44;100.00
73817;BME280;62146;53.232;-1.304;2023-05-21T11:49:37;101209.88;;;25.50;100.00
73817;BME280;62146;53.232;-1.304;2023-05-21T11:52:06;101206.09;;;25.59;100.00
73817;BME280;62146;53.232;-1.304;2023-05-21T11:54:39;101212.31;;;25.68;100.00
73817;BME280;62146;53.232;-1.304;2023-05-21T11:57:07;101219.34;;;25.78;100.00
73817;BME280;62146;53.232;-1.304;2023-05-21T11:59:35;101220.97;;;25.87;100.00
73817;BME280;62146;53.232;-1.304;2023-05-21T12:02:02;101213.44;;;25.92;100.00
73817;BME280;62146;53.232;-1.304;2023-05-21T12:04:32;101213.75;;;25.99;100.00
73817;BME280;62146;53.232;-1.304;2023-05-21T12:07:06;101218.72;;;26.06;100.00
73817;BME280;62146;53.232;-1.304;2023-05-21T12:09:40;101216.66;;;26.11;100.00
73817;BME280;62146;53.232;-1.304;2023-05-21T12:12:07;101226.59;;;26.15;100.00
73817;BME280;62146;53.232;-1.304;2023-05-21T12:14:35;101215.56;;;26.20;100.00
73817;BME280;62146;53.232;-1.304;2023-05-21T12:17:05;101208.16;;;26.29;100.00
73817;BME280;62146;53.232;-1.304;2023-05-21T12:19:33;101208.81;;;26.43;100.00
73817;BME280;62146;53.232;-1.304;2023-05-21T12:22:04;101203.16;;;26.56;100.00
73817;BME280;62146;53.232;-1.304;2023-05-21T12:24:32;101208.56;;;26.73;100.00
73817;BME280;62146;53.232;-1.304;2023-05-21T12:27:00;101198.91;;;26.84;100.00
73817;BME280;62146;53.232;-1.304;2023-05-21T12:29:29;101195.50;;;26.95;100.00
73817;BME280;62146;53.232;-1.304;2023-05-21T12:31:59;101192.88;;;27.07;100.00
73817;BME280;62146;53.232;-1.304;2023-05-21T12:34:42;101198.56;;;27.22;100.00
73817;BME280;62146;53.232;-1.304;2023-05-21T12:37:30;101193.06;;;27.39;100.00
73817;BME280;62146;53.232;-1.304;2023-05-21T12:39:58;101191.34;;;27.54;100.00
73817;BME280;62146;53.232;-1.304;2023-05-21T12:42:28;101192.34;;;27.70;100.00
73817;BME280;62146;53.232;-1.304;2023-05-21T12:45:05;101186.00;;;27.86;100.00
73817;BME280;62146;53.232;-1.304;2023-05-21T12:47:32;101190.84;;;28.01;100.00
73817;BME280;62146;53.232;-1.304;2023-05-21T12:50:00;101186.69;;;28.15;100.00
73817;BME280;62146;53.232;-1.304;2023-05-21T12:52:27;101182.56;;;28.29;100.00
73817;BME280;62146;53.232;-1.304;2023-05-21T12:54:56;101185.31;;;28.41;100.00
73817;BME280;62146;53.232;-1.304;2023-05-21T12:57:36;101174.78;;;28.52;100.00
73817;BME280;62146;53.232;-1.304;2023-05-21T13:00:06;101172.19;;;28.67;100.00
73817;BME280;62146;53.232;-1.304;2023-05-21T13:02:38;101180.19;;;28.83;100.00
73817;BME280;62146;53.232;-1.304;2023-05-21T13:05:07;101173.69;;;29.00;100.00
73817;BME280;62146;53.232;-1.304;2023-05-21T13:07:35;101168.81;;;29.17;100.00
73817;BME280;62146;53.232;-1.304;2023-05-21T13:10:04;101174.50;;;29.35;100.00